Yellowknife, Canada
Current Conditions -  °F | °C
As of 9:00 AM on Thursday 30 Oct 2014 (Local Time) from CYZF Reporting Station
Light Snow Light Snow  
Wind Chill: 25°   Ceiling: 1600
Heat Index: 34°   Visibility: 15mi
Dew Point: 30°   Wind: 13mph
Humidity: 87%   Direction: 190°S
Pressure: 30.05"   Gusts: NA
Location:  62.45°N, 114.37°W
Report Text: CYZF 301500Z 19011KT 15SM -SN OVC016 01/M01 A3005 RMK SC8 CIG RAG SLP190
Loading
Personal Weather Stations






























Interactive Weather Map
Tropical Storm Tracking
New forecast layout! Learn more

10-Day Weather Forecast

Advertisements
Track Severe Weather on mobile